Etusivu
METAR-TAF:

METAR-TAF

Lentoasemat :

Challis Airport

Challis, Idaho, Yhdysvallat

Leveyspiiri: 44-31-22N, Pituuspiiri: 114-12-54W, korkeus merenpinnasta: 1546 m

Tämänhetkinen sää

Tämä raportti tehtiin 25 minuuttia sitten, kello 19.55 UTC
tyyntä
Lämpötila -3°C
Kosteus 50%
Ilmanpaine 1031 hPa
Näkyvyys: 16.1 km
selkeää

METAR: KLLJ 031955Z AUTO 00000KT 10SM CLR M03/M12 A3044 RMK AO2 SLP361 T10281122

Aika: 13:20 (20:20 UTC)


TAF: puuttuu

Säähavainnot ja -ennusteet yli 4000 lentoasemalta (METAR- ja TAF-raportit).

Käytössä olevat sääasemat on merkitty karttaan keltaisilla ja punaisilla pisteillä.

Aseta hiiri pisteen päälle nähdäksesi sääaseman nimen.

Klikkaa sitten nähdäksesi säähavainnot ja -ennusteet.

Kartan vaihtaminen: klikkaa mustalla rastilla varustettuja vihreitä pisteitä, niin voit zoomata sisään; viivalla varustettua vihreää pistettä, niin voit zoomata ulos tai vihreitä nuolia, niin pääset viereisille kartoille.


METAR-TAF: